Iramaia, Brazil
Current Conditions -  °F | °C
As of 6:00 AM on Wednesday 22 Oct 2014 (Local Time) from SBQV Reporting Station
Scattered Clouds Scattered Clouds  
Wind Chill: 64°   Ceiling: Unl
Heat Index: 64°   Visibility: 6mi
Dew Point: 63°   Wind: 7mph
Humidity: 94%   Direction: 80°E
Pressure: 30.12"   Gusts: NA
Location:  13.29°S, 40.95°W
Report Text: SBQV 220900Z 08006KT 9999 FEW008 SCT080 18/17 Q1020
Loading
Personal Weather Stations






























Interactive Weather Map
Tropical Storm Tracking
New forecast layout! Learn more

10-Day Weather Forecast

Advertisements
Track Severe Weather on mobile